sensor_id;sensor_type;location;lat;lon;timestamp;pressure;altitude;pressure_sealevel;temperature;humidity
46714;BME280;32445;51.376;10.874;2023-04-07T00:02:59;99515.44;;;6.22;39.38
46714;BME280;32445;51.376;10.874;2023-04-07T00:06:01;99524.06;;;6.17;39.87
46714;BME280;32445;51.376;10.874;2023-04-07T00:09:01;99519.81;;;6.11;39.73
46714;BME280;32445;51.376;10.874;2023-04-07T00:12:02;99522.44;;;6.05;39.67
46714;BME280;32445;51.376;10.874;2023-04-07T00:15:02;99521.59;;;6.00;39.62
46714;BME280;32445;51.376;10.874;2023-04-07T00:18:03;99515.63;;;5.95;39.60
46714;BME280;32445;51.376;10.874;2023-04-07T00:21:03;99524.22;;;5.91;39.79
46714;BME280;32445;51.376;10.874;2023-04-07T00:24:04;99517.41;;;5.83;40.29
46714;BME280;32445;51.376;10.874;2023-04-07T00:27:04;99509.69;;;5.79;39.63
46714;BME280;32445;51.376;10.874;2023-04-07T00:30:05;99513.16;;;5.73;40.24
46714;BME280;32445;51.376;10.874;2023-04-07T00:33:06;99516.66;;;5.67;40.26
46714;BME280;32445;51.376;10.874;2023-04-07T00:36:06;99511.50;;;5.63;40.20
46714;BME280;32445;51.376;10.874;2023-04-07T00:39:06;99520.13;;;5.57;40.16
46714;BME280;32445;51.376;10.874;2023-04-07T00:42:07;99520.16;;;5.52;40.16
46714;BME280;32445;51.376;10.874;2023-04-07T00:45:08;99525.34;;;5.48;40.52
46714;BME280;32445;51.376;10.874;2023-04-07T00:48:09;99521.91;;;5.43;40.07
46714;BME280;32445;51.376;10.874;2023-04-07T00:51:09;99519.38;;;5.40;40.26
46714;BME280;32445;51.376;10.874;2023-04-07T00:54:10;99517.66;;;5.35;40.32
46714;BME280;32445;51.376;10.874;2023-04-07T00:57:10;99511.69;;;5.32;41.18
46714;BME280;32445;51.376;10.874;2023-04-07T01:00:11;99508.28;;;5.27;40.75
46714;BME280;32445;51.376;10.874;2023-04-07T01:03:24;99515.19;;;5.22;40.61
46714;BME280;32445;51.376;10.874;2023-04-07T01:06:30;99503.19;;;5.17;40.80
46714;BME280;32445;51.376;10.874;2023-04-07T01:09:45;99501.50;;;5.10;40.69
46714;BME280;32445;51.376;10.874;2023-04-07T01:13:05;99497.22;;;5.06;41.09
46714;BME280;32445;51.376;10.874;2023-04-07T01:16:33;99499.78;;;4.98;41.31
46714;BME280;32445;51.376;10.874;2023-04-07T01:20:07;99489.50;;;4.97;40.88
46714;BME280;32445;51.376;10.874;2023-04-07T01:23:04;99493.84;;;4.93;41.11
46714;BME280;32445;51.376;10.874;2023-04-07T01:26:19;99491.25;;;4.85;41.25
46714;BME280;32445;51.376;10.874;2023-04-07T01:29:41;99499.00;;;4.81;41.87
46714;BME280;32445;51.376;10.874;2023-04-07T01:32:50;99497.28;;;4.77;41.22
46714;BME280;32445;51.376;10.874;2023-04-07T01:35:53;99490.44;;;4.73;41.30
46714;BME280;32445;51.376;10.874;2023-04-07T01:38:57;99485.31;;;4.68;41.87
46714;BME280;32445;51.376;10.874;2023-04-07T01:41:58;99491.31;;;4.64;41.46
46714;BME280;32445;51.376;10.874;2023-04-07T01:45:01;99484.47;;;4.60;41.55
46714;BME280;32445;51.376;10.874;2023-04-07T01:48:05;99493.94;;;4.55;41.69
46714;BME280;32445;51.376;10.874;2023-04-07T01:51:06;99495.63;;;4.51;41.24
46714;BME280;32445;51.376;10.874;2023-04-07T01:54:07;99495.66;;;4.48;41.95
46714;BME280;32445;51.376;10.874;2023-04-07T01:57:08;99493.09;;;4.43;41.99
46714;BME280;32445;51.376;10.874;2023-04-07T02:00:08;99494.78;;;4.40;41.54
46714;BME280;32445;51.376;10.874;2023-04-07T02:03:19;99492.22;;;4.35;41.92
46714;BME280;32445;51.376;10.874;2023-04-07T02:06:26;99483.69;;;4.31;41.90
46714;BME280;32445;51.376;10.874;2023-04-07T02:09:31;99491.41;;;4.28;41.95
46714;BME280;32445;51.376;10.874;2023-04-07T02:12:33;99486.25;;;4.22;41.33
46714;BME280;32445;51.376;10.874;2023-04-07T02:15:35;99486.25;;;4.19;42.44
46714;BME280;32445;51.376;10.874;2023-04-07T02:18:37;99482.84;;;4.15;42.47
46714;BME280;32445;51.376;10.874;2023-04-07T02:21:38;99487.97;;;4.11;41.82
46714;BME280;32445;51.376;10.874;2023-04-07T02:24:42;99484.56;;;4.07;42.29
46714;BME280;32445;51.376;10.874;2023-04-07T02:27:42;99481.13;;;4.04;41.80
46714;BME280;32445;51.376;10.874;2023-04-07T02:30:42;99475.97;;;4.01;42.14
46714;BME280;32445;51.376;10.874;2023-04-07T02:33:43;99476.84;;;3.96;42.35
46714;BME280;32445;51.376;10.874;2023-04-07T02:36:43;99469.97;;;3.92;42.00
46714;BME280;32445;51.376;10.874;2023-04-07T02:39:43;99478.53;;;3.88;42.44
46714;BME280;32445;51.376;10.874;2023-04-07T02:42:44;99482.81;;;3.85;42.84
46714;BME280;32445;51.376;10.874;2023-04-07T02:45:45;99488.81;;;3.82;42.27
46714;BME280;32445;51.376;10.874;2023-04-07T02:48:45;99491.38;;;3.79;41.92
46714;BME280;32445;51.376;10.874;2023-04-07T02:51:46;99491.38;;;3.76;42.17
46714;BME280;32445;51.376;10.874;2023-04-07T02:54:46;99499.09;;;3.73;42.21
46714;BME280;32445;51.376;10.874;2023-04-07T02:57:46;99485.38;;;3.69;42.08
46714;BME280;32445;51.376;10.874;2023-04-07T03:00:47;99486.22;;;3.65;42.12
46714;BME280;32445;51.376;10.874;2023-04-07T03:03:48;99485.38;;;3.61;42.54
46714;BME280;32445;51.376;10.874;2023-04-07T03:06:48;99487.94;;;3.57;42.22
46714;BME280;32445;51.376;10.874;2023-04-07T03:09:49;99482.75;;;3.52;42.44
46714;BME280;32445;51.376;10.874;2023-04-07T03:12:49;99486.22;;;3.50;42.44
46714;BME280;32445;51.376;10.874;2023-04-07T03:15:50;99481.03;;;3.45;42.01
46714;BME280;32445;51.376;10.874;2023-04-07T03:18:50;99493.03;;;3.43;42.88
46714;BME280;32445;51.376;10.874;2023-04-07T03:21:50;99489.56;;;3.39;42.40
46714;BME280;32445;51.376;10.874;2023-04-07T03:24:51;99478.47;;;3.37;42.81
46714;BME280;32445;51.376;10.874;2023-04-07T03:27:51;99479.31;;;3.33;42.90
46714;BME280;32445;51.376;10.874;2023-04-07T03:30:51;99481.03;;;3.31;42.95
46714;BME280;32445;51.376;10.874;2023-04-07T03:33:51;99484.44;;;3.27;43.25
46714;BME280;32445;51.376;10.874;2023-04-07T03:36:52;99486.13;;;3.23;42.78
46714;BME280;32445;51.376;10.874;2023-04-07T03:39:52;99486.94;;;3.19;42.75
46714;BME280;32445;51.376;10.874;2023-04-07T03:42:52;99487.81;;;3.17;43.13
46714;BME280;32445;51.376;10.874;2023-04-07T03:45:53;99482.66;;;3.14;43.22
46714;BME280;32445;51.376;10.874;2023-04-07T03:48:53;99481.78;;;3.08;42.75
46714;BME280;32445;51.376;10.874;2023-04-07T03:51:54;99486.03;;;3.05;42.67
46714;BME280;32445;51.376;10.874;2023-04-07T03:54:54;99480.06;;;3.01;43.06
46714;BME280;32445;51.376;10.874;2023-04-07T03:57:55;99482.63;;;2.98;42.46
46714;BME280;32445;51.376;10.874;2023-04-07T04:00:55;99484.28;;;2.93;42.79
46714;BME280;32445;51.376;10.874;2023-04-07T04:03:56;99485.97;;;2.89;42.73
46714;BME280;32445;51.376;10.874;2023-04-07T04:06:56;99481.72;;;2.87;43.26
46714;BME280;32445;51.376;10.874;2023-04-07T04:09:56;99488.50;;;2.83;43.51
46714;BME280;32445;51.376;10.874;2023-04-07T04:12:56;99490.22;;;2.81;42.70
46714;BME280;32445;51.376;10.874;2023-04-07T04:15:59;99487.63;;;2.76;42.99
46714;BME280;32445;51.376;10.874;2023-04-07T04:19:00;99483.34;;;2.74;43.20
46714;BME280;32445;51.376;10.874;2023-04-07T04:22:00;99485.91;;;2.71;43.60
46714;BME280;32445;51.376;10.874;2023-04-07T04:25:01;99483.31;;;2.69;43.71
46714;BME280;32445;51.376;10.874;2023-04-07T04:28:01;99484.16;;;2.67;43.48
46714;BME280;32445;51.376;10.874;2023-04-07T04:31:02;99480.72;;;2.65;43.71
46714;BME280;32445;51.376;10.874;2023-04-07T04:34:02;99487.56;;;2.63;43.38
46714;BME280;32445;51.376;10.874;2023-04-07T04:37:02;99482.44;;;2.61;43.80
46714;BME280;32445;51.376;10.874;2023-04-07T04:40:03;99489.25;;;2.60;43.62
46714;BME280;32445;51.376;10.874;2023-04-07T04:43:07;99494.34;;;2.59;43.95
46714;BME280;32445;51.376;10.874;2023-04-07T04:46:08;99496.06;;;2.58;43.62
46714;BME280;32445;51.376;10.874;2023-04-07T04:49:09;99493.50;;;2.58;44.21
46714;BME280;32445;51.376;10.874;2023-04-07T04:52:09;99493.50;;;2.55;43.95
46714;BME280;32445;51.376;10.874;2023-04-07T04:55:10;99499.47;;;2.54;44.07
46714;BME280;32445;51.376;10.874;2023-04-07T04:58:10;99502.03;;;2.56;43.80
46714;BME280;32445;51.376;10.874;2023-04-07T05:01:11;99502.88;;;2.55;44.38
46714;BME280;32445;51.376;10.874;2023-04-07T05:04:12;99501.19;;;2.55;44.42
46714;BME280;32445;51.376;10.874;2023-04-07T05:07:12;99502.88;;;2.55;44.28
46714;BME280;32445;51.376;10.874;2023-04-07T05:10:13;99503.75;;;2.57;44.37
46714;BME280;32445;51.376;10.874;2023-04-07T05:13:13;99496.06;;;2.58;44.79
46714;BME280;32445;51.376;10.874;2023-04-07T05:16:14;99499.50;;;2.60;44.49
46714;BME280;32445;51.376;10.874;2023-04-07T05:19:14;99499.50;;;2.62;44.65
46714;BME280;32445;51.376;10.874;2023-04-07T05:22:14;99496.97;;;2.64;44.64
46714;BME280;32445;51.376;10.874;2023-04-07T05:25:15;99497.84;;;2.67;44.77
46714;BME280;32445;51.376;10.874;2023-04-07T05:28:16;99501.28;;;2.71;44.83
46714;BME280;32445;51.376;10.874;2023-04-07T05:31:16;99502.13;;;2.73;44.79
46714;BME280;32445;51.376;10.874;2023-04-07T05:34:16;99508.13;;;2.76;45.18
46714;BME280;32445;51.376;10.874;2023-04-07T05:37:17;99497.91;;;2.81;44.73
46714;BME280;32445;51.376;10.874;2023-04-07T05:40:17;99497.09;;;2.85;44.55
46714;BME280;32445;51.376;10.874;2023-04-07T05:43:17;99498.78;;;2.89;44.64
46714;BME280;32445;51.376;10.874;2023-04-07T05:46:18;99501.41;;;2.92;44.67
46714;BME280;32445;51.376;10.874;2023-04-07T05:49:18;99504.81;;;2.96;45.29
46714;BME280;32445;51.376;10.874;2023-04-07T05:52:18;99500.56;;;3.01;44.91
46714;BME280;32445;51.376;10.874;2023-04-07T05:55:19;99498.03;;;3.06;44.81
46714;BME280;32445;51.376;10.874;2023-04-07T05:58:21;99493.75;;;3.09;45.12
46714;BME280;32445;51.376;10.874;2023-04-07T06:01:21;99498.03;;;3.14;44.80
46714;BME280;32445;51.376;10.874;2023-04-07T06:04:21;99496.38;;;3.19;45.09
46714;BME280;32445;51.376;10.874;2023-04-07T06:07:22;99495.53;;;3.21;44.44
46714;BME280;32445;51.376;10.874;2023-04-07T06:10:22;99496.38;;;3.25;44.75
46714;BME280;32445;51.376;10.874;2023-04-07T06:13:22;99499.81;;;3.28;44.80
46714;BME280;32445;51.376;10.874;2023-04-07T06:16:23;99503.25;;;3.32;45.17
46714;BME280;32445;51.376;10.874;2023-04-07T06:19:23;99508.38;;;3.35;45.30
46714;BME280;32445;51.376;10.874;2023-04-07T06:22:23;99509.25;;;3.36;45.72
46714;BME280;32445;51.376;10.874;2023-04-07T06:25:24;99504.97;;;3.38;45.80
46714;BME280;32445;51.376;10.874;2023-04-07T06:28:24;99512.72;;;3.44;45.50
46714;BME280;32445;51.376;10.874;2023-04-07T06:31:25;99505.03;;;3.50;45.15
46714;BME280;32445;51.376;10.874;2023-04-07T06:34:26;99505.88;;;3.54;45.80
46714;BME280;32445;51.376;10.874;2023-04-07T06:37:26;99508.47;;;3.60;45.76
46714;BME280;32445;51.376;10.874;2023-04-07T06:40:26;99511.03;;;3.69;45.40
46714;BME280;32445;51.376;10.874;2023-04-07T06:43:27;99507.63;;;3.75;45.42
46714;BME280;32445;51.376;10.874;2023-04-07T06:46:27;99513.63;;;3.78;45.01
46714;BME280;32445;51.376;10.874;2023-04-07T06:49:27;99508.50;;;3.83;45.84
46714;BME280;32445;51.376;10.874;2023-04-07T06:52:28;99517.06;;;3.82;46.20
46714;BME280;32445;51.376;10.874;2023-04-07T06:55:28;99512.78;;;3.83;45.85
46714;BME280;32445;51.376;10.874;2023-04-07T06:58:28;99516.22;;;3.81;46.49
46714;BME280;32445;51.376;10.874;2023-04-07T07:01:29;99518.78;;;3.85;46.73
46714;BME280;32445;51.376;10.874;2023-04-07T07:04:29;99518.78;;;3.92;47.07
46714;BME280;32445;51.376;10.874;2023-04-07T07:07:30;99514.50;;;3.99;46.69
46714;BME280;32445;51.376;10.874;2023-04-07T07:10:30;99518.78;;;4.03;46.77
46714;BME280;32445;51.376;10.874;2023-04-07T07:13:31;99512.81;;;4.07;47.82
46714;BME280;32445;51.376;10.874;2023-04-07T07:16:31;99515.38;;;4.16;46.93
46714;BME280;32445;51.376;10.874;2023-04-07T07:19:31;99509.38;;;4.28;46.77
46714;BME280;32445;51.376;10.874;2023-04-07T07:22:32;99514.50;;;4.39;47.29
46714;BME280;32445;51.376;10.874;2023-04-07T07:25:32;99515.34;;;4.49;46.86
46714;BME280;32445;51.376;10.874;2023-04-07T07:28:32;99516.22;;;4.59;46.54
46714;BME280;32445;51.376;10.874;2023-04-07T07:31:33;99515.31;;;4.67;46.80
46714;BME280;32445;51.376;10.874;2023-04-07T07:34:33;99517.88;;;4.77;46.57
46714;BME280;32445;51.376;10.874;2023-04-07T07:37:33;99517.84;;;4.86;46.37
46714;BME280;32445;51.376;10.874;2023-04-07T07:40:34;99519.53;;;4.98;46.34
46714;BME280;32445;51.376;10.874;2023-04-07T07:43:35;99522.94;;;5.09;46.83
46714;BME280;32445;51.376;10.874;2023-04-07T07:46:36;99522.88;;;5.23;46.34
46714;BME280;32445;51.376;10.874;2023-04-07T07:49:36;99526.28;;;5.34;46.18
46714;BME280;32445;51.376;10.874;2023-04-07T07:52:37;99528.78;;;5.47;46.32
46714;BME280;32445;51.376;10.874;2023-04-07T07:55:37;99524.41;;;5.60;46.00
46714;BME280;32445;51.376;10.874;2023-04-07T07:58:37;99532.06;;;5.75;46.09
46714;BME280;32445;51.376;10.874;2023-04-07T08:01:38;99531.09;;;5.88;45.35
46714;BME280;32445;51.376;10.874;2023-04-07T08:04:38;99534.47;;;6.01;45.15
46714;BME280;32445;51.376;10.874;2023-04-07T08:07:38;99537.84;;;6.13;44.71
46714;BME280;32445;51.376;10.874;2023-04-07T08:10:39;99536.03;;;6.24;44.60
46714;BME280;32445;51.376;10.874;2023-04-07T08:13:39;99534.22;;;6.37;45.10
46714;BME280;32445;51.376;10.874;2023-04-07T08:16:44;99538.38;;;6.50;45.45
46714;BME280;32445;51.376;10.874;2023-04-07T08:19:44;99545.97;;;6.66;45.44
46714;BME280;32445;51.376;10.874;2023-04-07T08:22:45;99548.41;;;6.83;45.46
46714;BME280;32445;51.376;10.874;2023-04-07T08:25:45;99543.94;;;6.97;45.48
46714;BME280;32445;51.376;10.874;2023-04-07T08:28:47;99551.50;;;7.14;45.35
46714;BME280;32445;51.376;10.874;2023-04-07T08:31:48;99552.13;;;7.35;45.71
46714;BME280;32445;51.376;10.874;2023-04-07T08:34:48;99542.47;;;7.52;45.06
46714;BME280;32445;51.376;10.874;2023-04-07T08:37:51;99543.00;;;7.74;44.73
46714;BME280;32445;51.376;10.874;2023-04-07T08:41:02;99541.06;;;7.90;44.82
46714;BME280;32445;51.376;10.874;2023-04-07T08:44:03;99536.44;;;8.09;44.56
46714;BME280;32445;51.376;10.874;2023-04-07T08:47:05;99532.75;;;8.26;44.33
46714;BME280;32445;51.376;10.874;2023-04-07T08:50:09;99535.09;;;8.41;43.59
46714;BME280;32445;51.376;10.874;2023-04-07T08:53:14;99538.41;;;8.53;43.86
46714;BME280;32445;51.376;10.874;2023-04-07T08:56:17;99534.72;;;8.64;43.80
46714;BME280;32445;51.376;10.874;2023-04-07T08:59:18;99532.72;;;8.80;43.55
46714;BME280;32445;51.376;10.874;2023-04-07T09:02:26;99527.16;;;9.00;43.18
46714;BME280;32445;51.376;10.874;2023-04-07T09:05:27;99527.75;;;9.15;42.71
46714;BME280;32445;51.376;10.874;2023-04-07T09:08:28;99536.81;;;9.36;42.73
46714;BME280;32445;51.376;10.874;2023-04-07T09:11:33;99539.00;;;9.56;42.25
46714;BME280;32445;51.376;10.874;2023-04-07T09:14:34;99537.69;;;9.77;41.18
46714;BME280;32445;51.376;10.874;2023-04-07T09:17:34;99535.44;;;9.99;41.28
46714;BME280;32445;51.376;10.874;2023-04-07T09:21:13;99529.69;;;10.22;41.08
46714;BME280;32445;51.376;10.874;2023-04-07T09:24:27;99534.28;;;10.49;40.31
46714;BME280;32445;51.376;10.874;2023-04-07T09:27:33;99531.91;;;10.74;40.45
46714;BME280;32445;51.376;10.874;2023-04-07T09:30:33;99539.03;;;10.99;39.98
46714;BME280;32445;51.376;10.874;2023-04-07T09:33:33;99530.63;;;11.22;39.60
46714;BME280;32445;51.376;10.874;2023-04-07T09:36:43;99535.09;;;11.47;38.96
46714;BME280;32445;51.376;10.874;2023-04-07T09:39:51;99536.16;;;11.69;38.43
46714;BME280;32445;51.376;10.874;2023-04-07T09:42:55;99531.97;;;11.92;38.41
46714;BME280;32445;51.376;10.874;2023-04-07T09:46:13;99528.03;;;12.08;37.60
46714;BME280;32445;51.376;10.874;2023-04-07T09:49:14;99525.59;;;12.31;37.70
46714;BME280;32445;51.376;10.874;2023-04-07T09:52:14;99526.69;;;12.50;37.36
46714;BME280;32445;51.376;10.874;2023-04-07T09:55:20;99524.16;;;12.74;37.65
46714;BME280;32445;51.376;10.874;2023-04-07T09:58:21;99524.19;;;12.97;37.19
46714;BME280;32445;51.376;10.874;2023-04-07T10:01:21;99522.34;;;13.25;36.79
46714;BME280;32445;51.376;10.874;2023-04-07T10:04:23;99517.53;;;13.38;35.89
46714;BME280;32445;51.376;10.874;2023-04-07T10:07:23;99516.72;;;13.59;36.27
46714;BME280;32445;51.376;10.874;2023-04-07T10:10:24;99509.34;;;13.71;35.61
46714;BME280;32445;51.376;10.874;2023-04-07T10:13:26;99505.59;;;13.78;35.22
46714;BME280;32445;51.376;10.874;2023-04-07T10:16:27;99507.78;;;13.89;35.58
46714;BME280;32445;51.376;10.874;2023-04-07T10:19:30;99516.56;;;14.08;35.28
46714;BME280;32445;51.376;10.874;2023-04-07T10:22:33;99508.84;;;14.27;34.05
46714;BME280;32445;51.376;10.874;2023-04-07T10:25:35;99517.19;;;14.35;32.82
46714;BME280;32445;51.376;10.874;2023-04-07T10:28:41;99509.19;;;14.40;32.74
46714;BME280;32445;51.376;10.874;2023-04-07T10:31:43;99509.25;;;14.59;32.96
46714;BME280;32445;51.376;10.874;2023-04-07T10:54:14;99511.31;;;15.70;31.35
46714;BME280;32445;51.376;10.874;2023-04-07T10:57:20;99507.16;;;15.85;31.18
46714;BME280;32445;51.376;10.874;2023-04-07T11:00:22;99505.94;;;15.92;30.83
46714;BME280;32445;51.376;10.874;2023-04-07T11:03:23;99512.56;;;15.99;31.09
46714;BME280;32445;51.376;10.874;2023-04-07T11:06:24;99500.72;;;16.09;31.74
46714;BME280;32445;51.376;10.874;2023-04-07T11:09:26;99498.59;;;16.35;31.60
46714;BME280;32445;51.376;10.874;2023-04-07T11:12:26;99498.78;;;16.66;31.52
46714;BME280;32445;51.376;10.874;2023-04-07T11:15:28;99496.63;;;16.91;30.39
46714;BME280;32445;51.376;10.874;2023-04-07T11:18:28;99501.25;;;17.20;30.33
46714;BME280;32445;51.376;10.874;2023-04-07T11:21:29;99506.72;;;17.49;30.38
46714;BME280;32445;51.376;10.874;2023-04-07T11:24:34;99504.41;;;17.74;29.90
46714;BME280;32445;51.376;10.874;2023-04-07T11:27:36;99503.31;;;17.94;29.80
46714;BME280;32445;51.376;10.874;2023-04-07T11:30:37;99499.56;;;18.14;29.56
46714;BME280;32445;51.376;10.874;2023-04-07T11:33:38;99504.50;;;18.35;29.35
46714;BME280;32445;51.376;10.874;2023-04-07T11:36:41;99511.13;;;18.57;28.50
46714;BME280;32445;51.376;10.874;2023-04-07T11:39:41;99505.63;;;18.76;27.70
46714;BME280;32445;51.376;10.874;2023-04-07T11:42:45;99502.28;;;18.88;27.65
46714;BME280;32445;51.376;10.874;2023-04-07T11:45:46;99506.19;;;18.81;27.21
46714;BME280;32445;51.376;10.874;2023-04-07T11:49:12;99501.59;;;18.84;26.88
46714;BME280;32445;51.376;10.874;2023-04-07T11:52:13;99511.88;;;19.04;27.66
46714;BME280;32445;51.376;10.874;2023-04-07T11:55:20;99500.00;;;19.25;27.13
46714;BME280;32445;51.376;10.874;2023-04-07T11:58:21;99506.84;;;19.42;26.77
46714;BME280;32445;51.376;10.874;2023-04-07T12:01:22;99502.53;;;19.41;27.43
46714;BME280;32445;51.376;10.874;2023-04-07T12:04:23;99499.31;;;19.50;26.27
46714;BME280;32445;51.376;10.874;2023-04-07T12:07:24;99489.59;;;19.65;27.81
46714;BME280;32445;51.376;10.874;2023-04-07T12:10:24;99497.28;;;19.68;26.46
46714;BME280;32445;51.376;10.874;2023-04-07T12:13:25;99498.69;;;19.74;26.53
46714;BME280;32445;51.376;10.874;2023-04-07T12:16:26;99495.41;;;19.85;26.33
46714;BME280;32445;51.376;10.874;2023-04-07T12:19:27;99495.25;;;20.01;26.53
46714;BME280;32445;51.376;10.874;2023-04-07T12:22:27;99490.03;;;20.27;26.65
46714;BME280;32445;51.376;10.874;2023-04-07T12:25:28;99493.66;;;20.38;26.00
46714;BME280;32445;51.376;10.874;2023-04-07T12:28:28;99500.16;;;20.33;25.40
46714;BME280;32445;51.376;10.874;2023-04-07T12:31:28;99492.88;;;20.23;25.45
46714;BME280;32445;51.376;10.874;2023-04-07T12:34:29;99493.22;;;20.32;26.51
46714;BME280;32445;51.376;10.874;2023-04-07T12:37:29;99494.53;;;20.52;26.51
46714;BME280;32445;51.376;10.874;2023-04-07T12:40:30;99493.09;;;20.73;26.22
46714;BME280;32445;51.376;10.874;2023-04-07T12:43:31;99492.75;;;20.91;25.28
46714;BME280;32445;51.376;10.874;2023-04-07T12:46:31;99493.19;;;21.11;26.50
46714;BME280;32445;51.376;10.874;2023-04-07T12:49:32;99494.41;;;21.31;26.88
46714;BME280;32445;51.376;10.874;2023-04-07T12:52:32;99492.91;;;21.52;25.89
46714;BME280;32445;51.376;10.874;2023-04-07T12:55:33;99491.69;;;21.69;26.14
46714;BME280;32445;51.376;10.874;2023-04-07T12:58:34;99497.41;;;21.87;27.66
46714;BME280;32445;51.376;10.874;2023-04-07T13:01:35;99496.75;;;21.97;26.16
46714;BME280;32445;51.376;10.874;2023-04-07T13:04:36;99487.63;;;22.01;25.19
46714;BME280;32445;51.376;10.874;2023-04-07T13:07:39;99492.06;;;22.00;24.33
46714;BME280;32445;51.376;10.874;2023-04-07T13:10:39;99487.84;;;21.98;25.15
46714;BME280;32445;51.376;10.874;2023-04-07T13:13:40;99495.66;;;21.99;24.88
46714;BME280;32445;51.376;10.874;2023-04-07T13:16:40;99499.50;;;21.95;23.22
46714;BME280;32445;51.376;10.874;2023-04-07T13:19:41;99489.03;;;21.93;24.73
46714;BME280;32445;51.376;10.874;2023-04-07T13:22:42;99477.03;;;21.89;23.15
46714;BME280;32445;51.376;10.874;2023-04-07T13:25:42;99479.97;;;21.85;24.88
46714;BME280;32445;51.376;10.874;2023-04-07T13:28:43;99483.06;;;22.03;25.19
46714;BME280;32445;51.376;10.874;2023-04-07T13:31:45;99476.28;;;22.23;24.67
46714;BME280;32445;51.376;10.874;2023-04-07T13:34:46;99482.25;;;22.38;25.27
46714;BME280;32445;51.376;10.874;2023-04-07T13:37:46;99479.63;;;22.49;24.58
46714;BME280;32445;51.376;10.874;2023-04-07T13:40:46;99485.44;;;22.54;24.44
46714;BME280;32445;51.376;10.874;2023-04-07T13:43:48;99485.44;;;22.66;24.45
46714;BME280;32445;51.376;10.874;2023-04-07T13:46:49;99484.47;;;22.78;24.48
46714;BME280;32445;51.376;10.874;2023-04-07T13:49:49;99477.88;;;22.84;24.90
46714;BME280;32445;51.376;10.874;2023-04-07T13:52:51;99479.31;;;22.99;27.52
46714;BME280;32445;51.376;10.874;2023-04-07T13:55:51;99480.41;;;23.08;24.36
46714;BME280;32445;51.376;10.874;2023-04-07T13:58:51;99477.28;;;23.03;24.41
46714;BME280;32445;51.376;10.874;2023-04-07T14:01:53;99477.75;;;23.08;24.72
46714;BME280;32445;51.376;10.874;2023-04-07T14:04:53;99477.41;;;23.12;25.23
46714;BME280;32445;51.376;10.874;2023-04-07T14:07:53;99472.63;;;23.18;23.89
46714;BME280;32445;51.376;10.874;2023-04-07T14:10:53;99477.41;;;23.24;24.66
46714;BME280;32445;51.376;10.874;2023-04-07T14:13:54;99472.47;;;23.30;24.47
46714;BME280;32445;51.376;10.874;2023-04-07T14:16:58;99478.47;;;23.32;23.44
46714;BME280;32445;51.376;10.874;2023-04-07T14:19:58;99469.13;;;23.40;23.41
46714;BME280;32445;51.376;10.874;2023-04-07T14:22:58;99479.09;;;23.47;23.81
46714;BME280;32445;51.376;10.874;2023-04-07T14:25:59;99465.19;;;23.55;24.16
46714;BME280;32445;51.376;10.874;2023-04-07T14:28:59;99470.03;;;23.61;24.27
46714;BME280;32445;51.376;10.874;2023-04-07T14:31:59;99471.44;;;23.65;24.41
46714;BME280;32445;51.376;10.874;2023-04-07T14:35:00;99467.69;;;23.68;24.77
46714;BME280;32445;51.376;10.874;2023-04-07T14:38:01;99476.97;;;23.74;24.17
46714;BME280;32445;51.376;10.874;2023-04-07T14:41:01;99479.47;;;23.75;23.29
46714;BME280;32445;51.376;10.874;2023-04-07T14:44:02;99469.59;;;23.77;23.10
46714;BME280;32445;51.376;10.874;2023-04-07T14:47:03;99474.66;;;23.80;24.03
46714;BME280;32445;51.376;10.874;2023-04-07T14:50:03;99470.91;;;23.83;24.14
46714;BME280;32445;51.376;10.874;2023-04-07T14:53:04;99470.66;;;23.86;24.06
46714;BME280;32445;51.376;10.874;2023-04-07T14:56:06;99476.69;;;23.88;23.72
46714;BME280;32445;51.376;10.874;2023-04-07T14:59:06;99480.91;;;23.91;23.67
46714;BME280;32445;51.376;10.874;2023-04-07T15:02:06;99485.97;;;23.94;23.69
46714;BME280;32445;51.376;10.874;2023-04-07T15:05:07;99485.00;;;23.95;23.96
46714;BME280;32445;51.376;10.874;2023-04-07T15:08:08;99485.00;;;23.95;24.41
46714;BME280;32445;51.376;10.874;2023-04-07T15:11:08;99477.03;;;23.95;24.36
46714;BME280;32445;51.376;10.874;2023-04-07T15:14:09;99484.03;;;23.96;23.86
46714;BME280;32445;51.376;10.874;2023-04-07T15:17:09;99490.28;;;23.95;23.21
46714;BME280;32445;51.376;10.874;2023-04-07T15:20:09;99487.78;;;23.93;24.01
46714;BME280;32445;51.376;10.874;2023-04-07T15:23:11;99488.16;;;23.89;23.65
46714;BME280;32445;51.376;10.874;2023-04-07T15:26:13;99486.56;;;23.86;23.15
46714;BME280;32445;51.376;10.874;2023-04-07T15:29:14;99493.78;;;23.84;23.36
46714;BME280;32445;51.376;10.874;2023-04-07T15:32:14;99489.59;;;23.81;23.11
46714;BME280;32445;51.376;10.874;2023-04-07T15:35:15;99496.50;;;23.73;24.22
46714;BME280;32445;51.376;10.874;2023-04-07T15:38:15;99489.03;;;23.66;23.44
46714;BME280;32445;51.376;10.874;2023-04-07T15:41:15;99500.56;;;23.65;24.02
46714;BME280;32445;51.376;10.874;2023-04-07T15:44:17;99495.53;;;23.62;23.95
46714;BME280;32445;51.376;10.874;2023-04-07T15:47:18;99503.59;;;23.61;23.45
46714;BME280;32445;51.376;10.874;2023-04-07T15:50:18;99510.00;;;23.58;23.88
46714;BME280;32445;51.376;10.874;2023-04-07T15:53:18;99499.50;;;23.57;24.33
46714;BME280;32445;51.376;10.874;2023-04-07T15:56:19;99505.94;;;23.54;24.36
46714;BME280;32445;51.376;10.874;2023-04-07T15:59:22;99513.25;;;23.50;22.45
46714;BME280;32445;51.376;10.874;2023-04-07T16:02:22;99515.69;;;23.42;24.09
46714;BME280;32445;51.376;10.874;2023-04-07T16:05:22;99508.09;;;23.38;24.19
46714;BME280;32445;51.376;10.874;2023-04-07T16:08:23;99517.25;;;23.33;23.32
46714;BME280;32445;51.376;10.874;2023-04-07T16:11:23;99515.81;;;23.29;24.36
46714;BME280;32445;51.376;10.874;2023-04-07T16:14:23;99524.00;;;23.26;24.94
46714;BME280;32445;51.376;10.874;2023-04-07T16:17:27;99524.38;;;23.22;23.49